Date,TemperatureHighF,TemperatureAvgF,TemperatureLowF,DewpointHighF,DewpointAvgF,DewpointLowF,HumidityHigh,HumidityAvg,HumidityLow,PressureMaxIn,PressureMinIn,WindSpeedMaxMPH,WindSpeedAvgMPH,GustSpeedMaxMPH,PrecipitationSumIn
2013-1-1,40.5,33.7,28.6,33.3,30.9,28.3,98,89,72,30.51,30.36,5,1,8,0.02
2013-1-2,44.1,35.1,29.5,34.4,28.9,24.5,94,79,49,30.36,30.18,6,1,10,0.00
2013-1-3,43.9,34.4,27.6,35.8,27.7,22.4,97,78,42,30.19,30.07,9,1,15,0.24
2013-1-4,48.0,42.0,36.4,45.5,40.7,35.7,99,94,88,30.31,30.16,10,2,15,0.05
2013-1-5,44.8,42.1,40.3,40.5,37.5,33.9,96,84,72,30.20,30.10,8,2,13,0.13
2013-1-6,45.2,41.8,38.6,41.5,39.5,37.7,97,91,82,30.17,29.96,13,4,21,0.05
2013-1-7,50.2,46.0,40.5,47.5,43.6,39.5,98,91,82,30.15,29.76,15,5,27,0.08
2013-1-8,51.4,46.5,41.5,49.5,44.7,40.2,99,93,83,30.15,29.69,23,6,37,1.04
2013-1-9,49.5,40.3,35.3,48.4,39.6,34.8,99,97,90,29.92,29.63,19,3,24,0.99
2013-1-10,37.8,35.2,31.2,36.9,34.0,28.1,98,95,87,30.10,29.91,5,1,10,0.05
2013-1-11,34.1,29.6,26.5,30.4,27.1,24.3,98,90,75,30.33,30.09,7,1,13,0.00
2013-1-12,37.4,28.9,25.1,31.2,25.8,24.1,99,88,68,30.45,30.32,8,1,10,0.02
2013-1-13,35.3,29.7,23.9,30.6,26.9,23.4,98,89,68,30.50,30.45,4,0,4,0.00
2013-1-14,36.5,34.0,32.0,32.2,30.0,28.4,90,85,76,30.58,30.48,6,1,9,0.00
2013-1-15,42.5,36.3,31.7,35.4,31.8,29.9,95,84,68,30.72,30.58,4,1,8,0.00
2013-1-16,39.8,33.4,27.9,35.9,31.4,27.7,99,92,78,30.71,30.53,4,1,6,0.00
2013-1-17,37.9,33.0,28.5,37.0,32.6,28.3,100,98,95,30.53,30.29,4,1,6,0.02
2013-1-18,37.6,33.7,31.4,37.5,33.7,31.4,100,99,98,30.35,30.25,4,1,6,0.00
2013-1-19,35.6,33.0,30.7,35.0,32.9,30.7,100,99,97,30.39,30.34,4,1,6,0.00
2013-1-20,39.7,34.2,31.4,38.0,33.8,31.4,100,98,92,30.40,30.25,5,1,8,0.00
2013-1-21,36.4,33.0,30.4,36.3,33.0,30.4,100,99,97,30.28,30.12,4,1,9,0.00
2013-1-22,38.5,34.4,30.7,36.7,33.7,30.7,100,97,91,30.12,29.87,4,1,8,0.00
2013-1-23,42.0,40.1,37.9,41.4,38.0,33.8,99,92,77,30.12,29.80,8,2,13,0.30
2013-1-24,45.5,42.0,39.6,41.3,39.2,36.2,99,89,71,30.20,30.03,8,2,12,0.14
2013-1-25,50.0,45.1,41.1,46.0,42.8,38.2,100,91,78,30.04,29.89,8,2,13,0.08
2013-1-26,44.1,41.6,39.6,42.2,39.9,38.1,98,93,89,30.01,29.84,9,2,19,0.30
2013-1-27,42.2,40.2,0.0,40.1,38.1,3.0,98,92,87,30.03,29.96,13,3,16,0.11
2013-1-28,41.7,40.1,37.9,41.3,39.5,37.4,99,97,95,30.07,29.98,8,2,15,0.32
2013-1-29,46.4,43.7,40.8,46.2,43.5,40.7,100,99,96,30.33,30.07,11,2,16,0.48
2013-1-30,47.4,45.9,43.5,47.4,45.8,43.4,100,100,99,30.39,30.33,7,2,9,0.26
2013-1-31,50.2,46.7,45.1,47.4,45.9,45.1,100,97,88,30.40,30.30,12,3,24,0.10
2013-2-1,50.5,45.2,40.5,47.7,44.2,40.1,99,96,84,30.42,30.33,5,1,9,0.02
2013-2-2,43.3,40.4,38.3,41.8,39.9,38.2,100,98,93,30.39,30.25,7,1,12,0.00
2013-2-3,47.4,43.3,38.6,45.2,42.2,38.5,100,96,88,30.30,30.20,6,2,9,0.08
2013-2-4,50.8,45.7,43.2,44.3,42.7,41.5,96,89,74,30.20,29.86,10,2,12,0.00
2013-2-5,51.8,45.7,43.1,45.0,42.5,40.9,97,88,72,29.90,29.80,16,5,25,0.18
2013-2-6,50.8,44.9,42.6,43.5,41.4,39.6,96,87,67,30.03,29.75,15,4,24,0.14
2013-2-7,50.2,43.2,36.4,41.6,37.3,34.6,96,80,59,30.17,29.75,14,3,25,0.08
2013-2-8,45.3,39.9,34.0,39.2,36.7,33.8,99,88,74,30.31,30.18,4,1,8,0.00
2013-2-9,44.8,41.7,39.6,41.0,39.5,37.1,97,92,77,30.35,30.25,5,0,6,0.02
2013-2-10,45.9,39.8,34.4,42.1,38.2,34.4,100,94,78,30.39,30.32,4,1,6,0.00
2013-2-11,46.9,43.2,40.2,42.0,40.4,38.6,98,90,77,30.37,30.33,5,1,9,0.03
2013-2-12,49.2,45.7,43.6,46.5,44.2,41.5,98,94,86,30.41,30.28,12,2,22,0.02
2013-2-13,47.9,45.0,43.4,45.7,42.9,41.5,97,92,83,30.52,30.31,9,1,13,0.06
2013-2-14,127.8,44.8,31.1,73.0,42.9,31.1,100,94,10,30.58,30.51,8,2,13,0.06
2013-2-15,127.7,43.9,-7.2,99.9,34.5,-99.9,100,100,100,30.57,30.35,5,1,9,0.02
2013-2-24,46.3,45.3,43.2,37.2,36.1,34.5,77,70,65,30.29,29.92,20,6,28,0.02
2013-2-25,53.2,43.1,38.2,41.0,14.9,-99.9,99,65,46,30.32,29.85,16,5,27,0.08
2013-2-26,47.1,42.2,35.2,37.9,30.7,-99.9,98,73,57,30.35,30.19,15,4,21,0.00
2013-2-27,48.3,43.1,39.5,45.1,-51.2,-99.9,99,29,71,30.31,30.20,8,2,18,0.24
2013-2-28,50.9,45.5,41.0,-99.9,-99.9,-99.9,0,0,100,30.33,30.17,14,3,27,0.16
2013-3-1,55.8,52.1,49.5,52.5,-24.4,-99.9,99,45,78,30.38,30.28,17,5,28,0.13
2013-3-2,57.5,48.5,37.3,51.4,31.3,-99.9,99,79,69,30.28,30.06,18,4,24,0.19
2013-3-3,52.6,41.1,35.2,37.3,33.1,28.6,93,75,40,30.31,30.20,8,2,13,0.02
2013-3-4,52.8,41.4,30.6,31.8,27.3,23.0,92,61,35,30.31,29.90,11,2,15,0.00
2013-3-5,50.0,43.9,40.1,38.7,31.8,22.8,87,63,42,29.90,29.69,5,1,10,0.00
2013-3-6,43.0,41.1,39.4,41.1,38.2,34.3,94,89,72,29.87,29.53,9,2,16,0.58
2013-3-7,50.1,43.2,38.9,41.5,39.0,34.4,94,85,59,30.07,29.87,8,1,13,0.21
2013-3-8,54.8,41.9,34.7,38.8,35.4,32.6,93,79,50,30.24,30.06,7,2,12,0.00
2013-3-9,57.2,43.1,32.1,42.5,36.7,30.4,100,79,53,30.51,30.24,8,1,10,0.00
2013-3-10,48.3,43.2,38.7,43.6,40.5,37.1,98,90,76,30.52,30.44,7,1,9,0.01
2013-3-11,52.0,46.5,41.3,47.3,43.7,41.3,100,90,69,30.46,30.15,7,1,12,0.03
2013-3-12,55.4,51.7,47.8,52.4,49.5,47.1,100,92,75,30.15,30.05,20,6,28,0.06
2013-3-13,52.3,51.0,49.9,52.1,50.2,48.9,100,97,91,30.20,30.07,17,5,27,0.16
2013-3-14,53.3,50.1,47.4,50.2,48.3,45.3,100,94,76,30.15,30.02,12,3,16,0.03
2013-3-15,59.6,52.1,47.7,52.0,49.3,46.5,100,90,73,30.21,30.13,12,3,19,0.00
2013-3-16,53.0,46.8,39.0,47.4,43.0,36.7,94,86,70,30.13,29.86,16,4,22,0.02
2013-3-17,54.4,42.6,38.7,41.0,37.0,34.5,97,82,49,30.19,29.95,12,3,16,0.03
2013-3-18,55.6,44.5,38.6,42.2,37.5,33.5,92,77,46,30.24,30.08,12,4,25,0.00
2013-3-19,58.5,43.6,36.1,43.0,37.3,31.9,100,81,39,30.23,29.55,13,2,19,0.30
2013-3-20,54.4,46.6,39.3,50.2,42.7,34.4,100,87,67,30.00,29.31,18,6,30,0.46
2013-3-21,53.3,40.8,36.0,42.1,36.5,34.5,99,85,53,30.21,30.00,13,3,15,0.06
2013-3-22,47.7,39.1,34.5,38.2,33.6,28.6,100,82,54,30.38,30.21,9,2,13,0.03
2013-3-23,53.6,41.0,33.0,35.5,31.4,25.2,97,71,38,30.41,30.30,8,1,12,0.05
2013-3-24,54.4,42.8,32.1,36.8,32.3,29.6,95,68,39,30.30,30.11,4,1,9,0.00
2013-3-25,63.8,50.4,37.7,38.4,32.6,28.3,74,51,34,30.13,29.91,8,2,9,0.00
2013-3-26,55.2,50.2,45.4,41.9,39.5,34.7,79,67,57,30.00,29.94,6,1,8,0.00
2013-3-27,61.9,50.0,45.4,49.3,43.1,35.6,98,77,53,29.97,29.92,6,1,6,0.03
2013-3-28,65.1,52.7,44.9,51.9,47.0,44.5,100,83,53,30.15,29.97,8,1,10,0.02
2013-3-29,69.3,54.1,44.6,51.5,46.1,44.0,99,76,48,30.25,30.15,6,1,9,0.00
2013-3-30,69.1,54.2,42.0,49.9,45.4,41.7,99,74,46,30.26,30.07,9,2,13,0.00
2013-3-31,73.4,57.0,44.8,51.0,45.3,42.0,90,67,44,30.07,29.89,6,2,9,0.00
2013-4-1,63.0,53.0,46.8,50.5,47.5,43.9,95,82,62,30.15,29.95,10,3,13,0.00
2013-4-2,58.2,52.4,49.0,48.8,46.7,45.0,90,80,68,30.20,30.15,10,2,15,0.00
2013-4-3,65.4,54.2,45.4,51.3,46.6,43.7,98,77,51,30.19,29.93,4,1,8,0.00
2013-4-4,55.6,52.4,49.4,54.3,50.6,46.3,100,93,85,29.93,29.60,16,2,24,0.35
2013-4-5,61.2,52.7,48.2,52.7,50.2,47.6,100,91,70,29.84,29.69,15,4,27,0.35
2013-4-6,55.4,48.0,44.6,49.5,46.0,43.4,100,92,73,29.90,29.66,22,5,22,0.48
2013-4-7,45.9,43.4,40.5,45.6,43.1,40.3,100,99,96,29.86,29.45,9,2,15,0.75
2013-4-8,58.3,48.0,41.9,49.4,44.6,41.5,100,89,69,30.27,29.87,9,2,10,0.05
2013-4-9,55.9,49.2,42.6,45.6,43.2,39.6,97,80,59,30.36,30.17,10,3,15,0.00
2013-4-10,63.2,51.7,47.7,55.0,47.2,43.2,100,85,68,30.26,29.92,12,4,19,0.24
2013-4-11,54.0,47.7,43.8,46.9,41.5,36.2,99,80,52,30.31,30.19,12,2,15,0.03
2013-4-12,47.9,43.6,40.2,44.9,40.6,37.6,100,89,71,30.19,29.63,18,4,25,0.21
2013-4-13,53.1,42.5,37.0,46.7,40.5,36.3,100,93,70,29.99,29.73,15,3,22,0.34
2013-4-14,60.0,45.4,38.9,44.9,39.7,33.9,100,82,49,30.00,29.90,9,2,13,0.03
2013-4-15,59.2,46.3,39.5,44.8,40.7,37.8,99,82,54,30.17,29.93,13,2,21,0.00
2013-4-16,61.3,45.8,36.7,45.2,39.1,33.4,100,79,49,30.41,30.17,10,1,19,0.00
2013-4-17,63.9,49.4,37.7,45.0,40.0,34.6,100,73,37,30.48,30.40,10,2,13,0.00
2013-4-18,51.6,47.3,43.9,48.8,43.9,39.1,100,88,73,30.48,30.20,18,4,25,0.16
2013-4-19,54.7,50.6,47.8,54.1,50.3,47.8,100,99,92,30.20,30.05,15,3,25,0.48
2013-4-20,56.7,49.2,46.4,51.9,47.6,45.2,100,94,72,30.28,30.19,10,2,13,0.18
2013-4-21,55.6,46.8,41.8,50.2,43.8,38.9,100,89,67,30.38,30.23,8,2,13,0.05
2013-4-22,63.6,49.7,37.8,46.5,37.4,25.9,100,66,32,30.55,30.38,10,2,13,0.00
2013-4-23,66.9,50.8,37.2,41.5,37.0,29.4,94,62,27,30.45,30.25,9,2,15,0.00
2013-4-24,72.4,56.4,41.3,45.7,39.3,32.9,93,56,30,30.33,30.05,8,1,12,0.00
2013-4-25,74.3,58.9,44.5,47.3,40.9,33.9,83,53,29,30.14,30.03,8,1,10,0.00
2013-4-26,67.7,56.7,46.0,51.1,48.0,43.3,99,74,52,30.26,30.14,6,1,10,0.00
2013-4-27,56.6,53.7,51.5,48.6,45.1,39.8,88,73,59,30.22,30.15,21,3,24,0.00
2013-4-28,64.0,51.6,46.4,51.4,46.0,41.0,98,82,53,30.22,29.93,18,3,21,0.02
2013-4-29,60.0,48.9,42.7,48.5,41.2,34.2,100,76,43,30.16,29.89,10,3,16,0.14
2013-4-30,58.3,46.2,36.7,44.0,36.9,31.2,98,71,41,30.46,30.16,8,2,12,0.08
2013-5-1,65.5,50.7,35.5,43.6,37.1,34.3,98,63,32,30.60,30.46,8,1,13,0.00
2013-5-2,70.5,56.0,43.5,48.4,41.5,36.7,84,59,41,30.58,30.39,9,2,15,0.00
2013-5-3,70.8,58.0,45.1,51.9,45.9,40.7,89,65,46,30.41,30.23,10,2,16,0.00
2013-5-4,76.9,65.5,50.6,54.8,45.5,38.7,83,52,30,30.25,29.99,10,2,16,0.00
2013-5-5,82.3,68.4,57.0,53.2,46.0,38.7,62,46,30,29.99,29.74,9,1,12,0.00
2013-5-6,85.9,69.5,54.0,54.4,48.0,43.6,78,48,27,29.83,29.72,6,1,13,0.00
2013-5-7,71.4,60.0,51.9,54.9,51.5,49.0,92,74,52,29.99,29.80,13,2,15,0.00
2013-5-8,65.3,56.3,51.0,53.8,50.6,48.6,92,81,61,30.15,29.99,8,1,12,0.00
2013-5-9,69.1,57.3,49.2,56.1,51.6,49.0,99,82,52,30.23,30.11,6,1,6,0.00
2013-5-10,80.2,63.4,48.8,57.6,52.1,48.3,98,69,40,30.20,30.10,4,1,9,0.00
2013-5-11,80.9,65.4,54.5,57.0,50.5,44.2,82,60,38,30.17,29.97,12,1,13,0.00
2013-5-12,71.7,62.6,57.5,59.1,56.3,51.2,99,80,59,30.10,30.00,12,3,18,0.16
2013-5-13,66.7,56.7,48.3,60.7,51.6,42.3,97,83,65,30.19,29.92,13,3,27,0.29
2013-5-14,66.7,54.8,46.9,49.3,43.9,40.0,89,68,42,30.23,30.11,9,2,13,0.00
2013-5-15,69.4,55.0,46.9,52.2,47.3,41.7,97,77,42,30.12,30.00,8,1,10,0.03
2013-5-16,72.4,60.0,52.6,56.1,52.1,47.3,99,77,47,30.01,29.84,6,1,9,0.00
2013-5-17,64.2,57.4,52.6,51.5,49.1,45.0,92,74,53,30.05,29.93,10,4,15,0.00
2013-5-18,63.1,56.4,51.2,49.1,47.4,45.5,88,72,53,30.28,30.05,9,2,13,0.00
2013-5-19,67.0,57.0,51.4,52.9,49.1,46.6,89,75,58,30.42,30.28,6,1,9,0.00
2013-5-20,70.1,56.4,46.3,52.8,48.4,45.7,98,76,47,30.38,29.89,8,1,10,0.00
2013-5-21,56.4,49.8,45.7,50.8,47.3,44.9,100,91,66,29.89,29.75,10,2,13,0.42
2013-5-22,53.7,47.9,44.1,49.2,46.1,43.5,100,93,78,29.92,29.82,8,2,13,0.06
2013-5-23,62.1,50.0,44.6,50.5,45.7,43.2,99,85,57,30.00,29.91,13,1,22,0.06
2013-5-24,66.3,54.4,45.6,51.1,47.0,45.0,100,78,48,30.05,29.95,9,2,13,0.00
2013-5-25,67.8,55.0,50.1,50.7,47.7,44.8,94,77,45,30.03,29.95,8,2,12,0.00
2013-5-26,65.7,55.5,49.8,57.3,51.6,48.4,99,87,64,29.98,29.93,8,1,12,0.10
2013-5-27,59.3,55.1,50.7,57.9,53.5,49.3,98,94,85,29.95,29.68,8,2,12,0.18
2013-5-28,65.0,56.2,51.5,54.9,50.5,47.3,96,81,60,29.86,29.74,12,3,18,0.03
2013-5-29,62.5,53.9,49.2,53.1,50.1,47.9,100,87,64,29.95,29.65,15,2,16,0.08
2013-5-30,65.2,55.7,48.8,50.1,47.4,45.8,90,74,50,30.25,29.95,15,4,19,0.00
2013-5-31,68.5,57.7,51.1,51.2,46.8,42.0,89,68,42,30.36,30.25,8,1,10,0.02
2013-6-1,75.5,61.1,51.0,52.8,48.1,45.2,87,64,35,30.25,30.05,10,2,13,0.00
2013-6-2,73.1,61.1,52.0,55.2,50.9,45.8,96,70,47,30.09,30.04,9,1,12,0.03
2013-6-3,73.9,60.9,50.5,55.9,52.0,49.8,98,74,50,30.12,30.05,6,1,10,0.00
2013-6-4,71.6,64.0,54.7,53.6,49.8,46.1,86,60,52,30.10,30.02,4,1,9,0.00
2013-6-5,80.1,66.3,53.8,59.4,53.1,46.9,80,63,45,30.09,30.02,9,2,12,0.00
2013-6-6,81.2,66.6,52.7,57.2,50.6,43.0,94,59,31,30.06,30.00,9,1,12,0.00
2013-6-7,68.7,61.5,55.3,57.0,49.5,41.9,80,65,46,30.15,30.02,12,2,16,0.00
2013-6-8,68.6,58.3,52.8,52.5,48.8,47.0,81,71,54,30.20,30.10,9,2,15,0.00
2013-6-9,70.3,57.5,50.8,51.0,48.0,45.3,88,71,48,30.12,30.02,10,2,13,0.00
2013-6-10,72.6,59.1,47.7,51.8,47.6,44.6,90,67,39,30.03,29.87,4,2,10,0.00
2013-6-11,66.4,57.2,51.5,56.2,48.0,45.4,93,72,54,30.10,29.92,13,4,19,0.18
2013-6-12,72.4,59.4,51.3,50.6,48.0,46.2,86,67,40,30.15,30.10,10,3,16,0.00
2013-6-13,71.8,59.5,51.8,52.1,49.2,46.8,88,70,45,30.23,30.14,4,1,9,0.00
2013-6-14,69.5,58.6,53.8,50.6,48.5,46.8,83,70,50,30.24,30.05,9,2,15,0.00
2013-6-15,75.6,62.7,49.0,56.8,52.3,48.3,98,71,47,30.05,29.91,4,1,10,0.00
2013-6-16,76.7,64.0,53.8,57.8,53.7,51.0,90,70,50,30.09,29.97,9,2,13,0.00
2013-6-17,78.0,65.5,56.3,55.4,52.0,47.3,86,64,38,30.09,29.87,9,2,13,0.00
2013-6-18,76.8,64.2,54.9,54.1,49.8,42.5,92,62,32,29.97,29.86,10,2,13,0.00
2013-6-19,71.9,60.2,54.4,54.5,51.1,48.9,87,72,47,30.00,29.90,6,2,10,0.00
2013-6-20,60.5,55.6,52.3,56.8,52.4,48.7,100,89,72,30.11,29.95,8,2,13,0.67
2013-6-21,67.1,59.2,52.0,57.8,53.1,49.9,100,81,57,30.17,30.11,4,1,9,0.03
2013-6-22,78.8,65.4,51.3,57.6,52.8,49.6,99,67,38,30.12,29.84,6,1,10,0.00
2013-6-23,71.4,65.0,58.3,63.5,58.8,53.1,100,81,65,29.80,29.56,4,1,8,0.16
2013-6-24,69.3,61.6,55.4,60.7,56.6,53.4,100,84,61,29.67,29.54,13,3,18,0.13
2013-6-25,77.3,62.7,55.9,61.9,57.3,53.3,100,85,46,29.84,29.64,10,2,15,0.40
2013-6-26,74.3,64.3,56.2,63.9,59.1,55.8,99,84,60,30.07,29.83,9,1,10,0.08
2013-6-27,70.7,69.7,63.4,62.7,60.5,60.1,95,73,69,30.21,30.05,8,1,10,0.10
2013-6-28,89.1,72.7,59.0,67.8,62.1,58.3,97,72,37,30.20,30.04,10,1,12,0.00
2013-6-29,81.9,69.0,64.4,64.8,61.2,58.5,89,77,52,30.10,30.00,6,1,10,0.00
2013-6-30,89.8,76.4,60.8,67.8,62.1,54.5,86,63,45,30.01,29.83,4,1,8,0.00
2013-7-1,88.9,76.3,64.2,66.2,61.6,57.9,81,61,41,30.02,29.90,6,1,10,0.00
2013-7-2,83.9,71.2,61.1,64.1,57.3,50.8,90,63,38,30.10,30.02,9,2,13,0.00
2013-7-3,82.2,65.7,58.5,58.4,51.2,46.3,75,60,40,30.16,30.05,8,2,13,0.00
2013-7-4,72.9,62.4,56.6,56.2,52.7,50.0,83,71,53,30.13,30.02,9,2,10,0.00
2013-7-5,73.6,64.0,54.1,56.6,54.5,52.0,95,72,53,30.03,29.94,6,1,10,0.00
2013-7-6,80.5,67.1,55.2,59.7,55.5,52.7,97,69,41,29.97,29.84,5,1,9,0.00
2013-7-7,76.8,66.1,57.4,60.0,56.8,52.8,92,72,52,29.95,29.86,5,1,10,0.00
2013-7-8,79.2,65.9,55.6,60.4,55.8,52.8,90,71,50,30.10,29.94,6,2,13,0.00
2013-7-9,83.9,70.6,57.5,60.6,56.4,51.8,94,63,41,30.12,29.99,8,1,10,0.00
2013-7-10,71.8,64.1,57.4,57.0,54.2,49.3,82,70,56,30.07,29.94,11,2,15,0.00
2013-7-11,72.5,60.7,55.3,52.5,49.2,47.4,78,66,45,30.09,29.99,8,2,13,0.00
2013-7-12,71.2,59.3,51.8,54.7,50.1,46.9,84,72,55,30.10,30.00,6,1,8,0.00
2013-7-13,78.8,64.1,51.3,55.5,49.3,46.1,86,61,34,30.21,30.10,8,2,13,0.00
2013-7-14,82.4,67.1,52.2,55.3,49.4,43.8,87,56,29,30.14,29.97,8,1,13,0.00
2013-7-15,81.6,68.0,53.9,57.8,50.9,46.7,86,56,37,30.05,29.88,8,2,16,0.00
2013-7-16,88.4,73.2,59.2,57.2,51.9,46.0,64,48,30,29.90,29.77,7,2,12,0.00
2013-7-17,71.7,65.3,58.6,60.1,56.7,54.4,95,74,59,30.20,29.86,10,2,16,0.06
2013-7-18,79.1,65.7,57.9,60.0,56.3,54.1,89,72,48,30.24,30.12,5,1,9,0.00
2013-7-19,80.0,65.7,54.6,62.0,57.2,53.4,97,76,49,30.17,30.03,5,1,10,0.00
2013-7-20,76.5,63.6,54.4,59.9,56.8,53.6,97,79,55,30.09,29.95,6,1,10,0.00
2013-7-21,77.0,63.7,55.7,60.2,57.1,54.5,96,80,54,29.98,29.89,6,1,10,0.00
2013-7-22,79.4,65.5,56.2,60.7,57.1,54.7,95,76,50,30.07,29.93,5,1,9,0.00
2013-7-23,85.7,69.4,54.5,61.8,55.7,50.0,97,65,35,30.07,29.96,4,1,8,0.00
2013-7-24,84.8,70.8,57.6,60.0,53.2,46.9,81,56,31,30.05,29.98,6,2,10,0.00
2013-7-25,86.0,70.3,55.7,59.0,52.5,46.9,88,56,31,30.10,30.02,6,1,10,0.00
2013-7-26,86.5,69.6,56.2,57.8,51.1,42.7,85,55,29,30.16,30.07,8,2,15,0.00
2013-7-27,79.1,65.9,55.0,55.3,51.6,48.0,87,62,39,30.17,29.99,9,1,10,0.00
2013-7-28,71.3,61.1,53.5,55.9,53.0,50.8,93,75,55,30.03,29.95,9,2,15,0.00
2013-7-29,74.4,63.7,55.0,56.8,53.9,51.5,87,71,51,30.00,29.94,8,1,10,0.00
2013-7-30,77.2,65.6,55.7,59.0,55.7,53.0,90,72,50,30.14,30.00,9,2,12,0.00
2013-7-31,72.1,62.2,55.8,60.9,57.4,53.9,96,84,63,30.13,29.98,7,1,10,0.00
2013-8-1,68.7,61.6,55.4,57.5,55.2,53.2,93,80,63,30.06,30.02,9,2,15,0.00
2013-8-2,60.5,59.3,57.2,59.8,57.1,54.2,99,92,82,30.13,30.05,10,2,16,0.13
2013-8-3,75.8,64.1,58.2,62.5,58.7,56.1,100,84,57,30.14,30.05,4,1,8,0.00
2013-8-4,82.4,68.6,55.3,62.9,58.2,54.3,97,72,46,30.06,29.93,7,1,12,0.00
2013-8-5,86.9,71.7,58.2,63.5,57.8,53.1,95,64,39,30.01,29.91,5,1,9,0.00
2013-8-6,87.0,70.3,55.9,60.5,54.7,50.0,90,60,28,30.00,29.90,4,1,9,0.00
2013-8-7,88.1,70.6,56.4,60.2,55.8,53.0,93,62,33,30.01,29.93,5,1,8,0.00
2013-8-8,82.4,68.4,57.5,60.9,57.0,53.8,93,68,45,30.04,29.92,8,1,12,0.00
2013-8-9,83.9,70.2,58.0,60.6,55.9,51.6,89,62,42,29.95,29.82,6,1,10,0.00
2013-8-10,77.2,67.5,58.5,64.0,60.5,57.4,98,79,57,30.00,29.87,9,2,12,0.06
2013-8-11,76.5,65.6,57.4,58.4,55.3,53.0,88,71,46,30.07,29.97,9,1,13,0.00
2013-8-12,79.3,66.4,57.7,57.9,55.5,54.0,90,69,45,30.07,30.00,7,1,12,0.00
2013-8-13,61.8,60.4,56.7,55.7,55.4,54.4,93,83,79,30.10,29.92,9,1,12,0.00
2013-8-14,79.1,62.3,61.3,62.5,57.1,55.7,92,83,46,29.95,29.90,7,1,10,0.00
2013-8-15,69.0,65.5,61.4,66.3,63.4,61.0,99,92,83,29.99,29.90,6,1,9,0.05
2013-8-16,83.9,70.6,59.8,66.5,60.0,48.0,100,73,32,30.00,29.93,9,1,12,0.00
2013-8-17,80.3,69.0,61.9,62.2,57.8,54.4,84,68,50,30.07,30.00,10,2,15,0.00
2013-8-18,80.4,66.6,60.0,60.0,56.3,52.3,87,70,48,30.13,30.07,9,2,13,0.00
2013-8-19,79.8,66.9,59.4,59.1,54.8,50.4,80,66,47,30.12,30.06,8,2,15,0.00
2013-8-20,79.3,66.2,57.3,57.0,52.1,48.3,82,61,44,30.17,30.07,9,2,15,0.00
2013-8-21,74.1,67.3,60.9,54.3,52.0,50.7,71,58,48,30.08,29.94,6,2,10,0.00
2013-8-22,85.0,72.0,57.5,56.5,53.7,50.5,82,54,36,29.94,29.77,5,1,6,0.00
2013-8-23,77.5,68.9,61.6,58.8,55.5,53.8,84,66,50,29.87,29.80,13,3,19,0.00
2013-8-24,78.6,66.1,59.8,58.5,55.4,50.8,86,69,39,29.91,29.84,8,1,10,0.00
2013-8-25,73.6,62.8,54.4,59.6,54.5,52.0,92,75,52,29.93,29.85,5,1,8,0.02
2013-8-26,78.6,65.6,61.3,60.5,57.6,51.0,88,76,44,29.95,29.84,8,2,15,0.03
2013-8-27,79.2,68.8,62.0,61.1,58.8,56.9,88,71,51,29.95,29.77,4,1,10,0.00
2013-8-28,79.4,72.5,61.6,66.9,61.7,59.1,100,70,55,29.88,29.83,0,0,0,0.00
2013-8-29,73.7,66.1,63.1,68.2,64.3,61.0,100,94,74,30.01,29.84,0,0,3,0.62
2013-8-30,79.1,67.4,59.5,63.5,57.4,51.1,97,72,38,30.16,30.01,0,0,0,0.00
2013-8-31,80.3,66.6,55.2,60.1,57.2,54.3,98,74,46,30.09,29.82,0,0,0,0.00
2013-9-1,81.4,68.6,58.0,61.5,58.3,56.3,94,71,48,29.87,29.77,0,0,0,0.00
2013-9-2,82.2,70.0,60.6,61.0,57.5,55.7,88,66,45,29.93,29.84,0,0,0,0.00
2013-9-3,74.9,64.4,60.4,67.0,61.1,57.5,99,89,67,30.02,29.92,0,0,0,0.21
2013-9-4,71.6,63.5,58.5,63.0,60.2,57.9,99,89,71,30.05,29.99,0,0,0,0.02
2013-9-5,67.0,61.4,58.6,62.9,59.8,58.1,100,94,82,30.04,29.92,0,0,2,0.46
2013-9-6,70.6,62.7,59.5,65.4,61.2,59.3,100,95,74,30.12,29.93,0,0,0,0.98
2013-9-7,72.4,64.0,59.5,63.0,60.1,57.9,97,87,66,30.10,30.01,2,0,6,0.00
2013-9-8,79.2,65.8,56.4,64.2,59.4,56.4,100,81,55,30.12,30.02,6,1,9,0.00
2013-9-9,77.8,64.6,56.4,62.8,59.1,56.3,100,84,57,30.07,29.97,5,0,9,0.00
2013-9-10,78.3,65.9,55.6,63.6,59.4,55.5,100,81,57,29.99,29.87,7,2,12,0.00
2013-9-11,88.6,72.8,59.0,65.9,60.2,55.4,96,67,38,29.93,29.85,4,1,10,0.00
2013-9-12,79.2,67.3,58.5,62.6,60.0,56.7,98,78,54,30.00,29.89,4,1,8,0.00
2013-9-13,67.6,62.2,59.0,61.7,59.9,58.1,100,92,80,29.96,29.86,4,0,8,0.00
2013-9-14,68.0,63.2,59.2,61.1,59.8,58.3,97,88,77,29.87,29.71,4,0,6,0.00
2013-9-15,66.7,60.2,56.9,62.4,59.3,56.4,100,96,85,29.80,29.69,10,2,13,0.29
2013-9-16,70.2,61.0,57.0,60.9,57.8,53.8,98,89,69,29.92,29.79,11,3,21,0.03
2013-9-17,63.1,58.3,54.7,55.0,53.4,51.4,96,84,68,29.92,29.85,4,1,6,0.00
2013-9-18,71.0,59.6,53.7,55.4,52.7,49.7,97,79,53,30.07,29.93,6,1,10,0.00
2013-9-19,78.3,62.2,48.7,54.3,50.5,46.7,98,69,40,30.04,29.73,4,1,8,0.00
2013-9-20,76.4,62.7,55.3,58.0,53.4,49.0,99,73,45,29.74,29.56,6,2,15,0.10
2013-9-21,71.0,60.5,55.2,58.2,54.7,51.7,97,82,59,29.69,29.61,11,2,15,0.02
2013-9-22,60.6,57.0,53.6,57.2,53.4,49.3,98,88,68,29.71,29.54,16,6,25,0.19
2013-9-23,61.9,55.7,52.3,55.5,52.2,47.3,98,88,73,29.96,29.70,16,4,25,0.18
2013-9-24,63.9,54.6,50.3,52.2,49.5,46.1,96,84,53,29.95,29.82,9,2,13,0.00
2013-9-25,58.8,51.8,48.1,51.2,48.7,45.9,99,89,71,30.02,29.84,7,1,13,0.06
2013-9-26,60.8,52.2,45.6,51.8,48.5,45.6,100,88,67,30.12,30.02,6,0,8,0.00
2013-9-27,55.9,54.6,50.1,53.1,51.9,49.5,98,90,84,30.01,29.82,16,4,22,0.03
2013-9-28,58.8,54.7,50.5,58.6,54.2,50.0,100,98,91,29.83,29.28,17,6,30,1.07
2013-9-29,55.3,52.2,50.8,53.0,50.4,48.0,100,93,84,29.52,29.08,18,8,33,0.59
2013-9-30,58.2,51.8,48.2,53.4,48.5,45.0,98,88,76,29.90,29.36,18,6,33,0.05
2013-10-1,59.5,51.2,47.0,50.4,47.2,44.1,99,86,63,30.10,29.89,13,5,24,0.14
2013-10-2,53.6,50.1,48.2,50.4,48.3,47.0,99,93,81,30.17,30.05,11,2,18,0.35
2013-10-3,56.2,50.5,45.7,49.7,47.3,44.8,98,89,66,30.48,30.17,5,1,8,0.02
2013-10-4,65.0,51.3,44.1,50.5,46.5,42.8,100,85,53,30.50,30.36,4,1,8,0.00
2013-10-5,69.4,54.6,44.6,52.8,48.6,44.6,100,82,51,30.38,30.12,5,0,6,0.00
2013-10-6,75.3,57.3,46.9,54.3,49.0,44.3,100,77,43,30.12,29.86,10,2,15,0.02
2013-10-7,63.0,54.6,51.8,52.3,49.8,45.2,98,84,60,30.00,29.87,12,4,24,0.06
2013-10-8,53.6,50.2,45.2,50.7,46.5,42.8,96,87,71,30.07,29.95,9,1,15,0.03
2013-10-9,60.2,48.0,40.2,48.3,43.8,40.2,100,87,60,30.13,29.94,6,1,8,0.00
2013-10-10,58.9,51.1,45.6,50.4,47.6,44.4,99,88,67,30.07,29.92,5,1,8,0.00
2013-10-11,53.4,49.7,48.7,50.5,49.2,48.7,100,98,88,30.14,30.06,2,0,4,0.00
2013-10-12,57.4,49.7,44.9,51.7,48.3,44.9,100,95,78,30.22,30.06,6,0,10,0.11
2013-10-13,52.3,46.0,43.3,48.0,45.5,43.3,100,98,83,30.37,30.22,4,1,8,0.00
2013-10-14,59.6,47.4,40.0,49.5,44.2,40.0,100,90,64,30.45,30.37,5,1,9,0.02
2013-10-15,58.5,48.7,41.2,50.7,46.2,41.2,100,92,68,30.40,30.17,5,0,6,0.00
2013-10-16,54.0,49.3,45.2,49.3,47.8,45.2,100,94,83,30.20,30.15,7,1,10,0.08
2013-10-17,54.6,49.4,46.2,49.4,47.7,45.9,100,94,81,30.28,30.20,5,1,10,0.00
2013-10-18,57.2,47.3,42.3,50.8,46.4,42.3,100,97,76,30.25,30.14,3,1,6,0.02
2013-10-19,50.4,46.2,42.7,49.2,45.8,42.7,100,98,93,30.20,30.15,4,1,6,0.00
2013-10-20,49.7,47.1,45.5,48.3,46.6,45.5,100,98,93,30.21,30.15,4,1,8,0.00
2013-10-21,51.3,47.6,45.4,49.5,47.2,45.4,100,98,92,30.17,30.09,5,1,8,0.00
2013-10-22,54.5,48.2,45.1,50.9,47.5,45.1,100,97,86,30.12,30.02,6,1,8,0.00
2013-10-23,57.0,47.8,43.9,51.6,46.9,43.9,100,97,80,30.05,29.96,4,1,6,0.00
2013-10-24,51.3,47.4,44.5,49.8,47.1,44.5,100,99,93,30.12,30.01,4,0,4,0.02
2013-10-25,52.3,48.1,45.9,50.0,47.6,45.9,100,98,90,30.33,30.12,7,1,9,0.02
2013-10-26,52.9,49.3,45.6,48.5,46.9,45.6,100,91,81,30.35,30.19,7,1,10,0.02
2013-10-27,54.6,48.9,44.6,50.9,46.5,44.1,100,91,78,30.20,29.88,10,2,22,0.05
2013-10-28,55.7,49.0,43.2,44.8,38.4,32.4,100,68,46,29.93,29.86,9,2,21,0.08
2013-10-29,54.6,44.6,36.6,42.0,38.5,35.2,100,80,52,30.02,29.93,4,1,9,0.00
2013-10-30,54.9,46.9,38.2,47.8,42.6,38.1,100,85,67,30.12,30.02,13,3,19,0.02
2013-10-31,54.7,51.1,48.6,51.2,48.4,43.4,97,90,77,30.26,30.09,11,2,21,0.00
2013-11-1,60.0,54.1,51.2,51.5,50.2,48.6,97,87,68,30.27,29.82,8,1,10,0.00
2013-11-2,53.4,49.2,43.6,51.4,45.7,39.7,100,88,71,29.86,29.44,21,5,52,2.43
2013-11-3,52.7,44.0,40.5,43.8,41.0,39.0,99,89,64,30.10,29.86,8,2,12,0.02
2013-11-4,48.7,42.9,36.7,43.4,38.7,31.6,100,86,52,30.19,30.04,6,1,8,0.02
2013-11-5,53.4,46.3,42.6,50.4,45.6,42.0,100,97,88,30.26,29.99,6,1,10,0.00
2013-11-6,51.8,47.1,42.8,47.2,45.4,42.8,100,94,78,30.33,30.02,4,1,9,0.05
2013-11-7,50.1,48.0,47.0,48.9,47.6,45.8,100,98,87,30.01,29.68,18,5,31,1.25
2013-11-8,53.9,49.2,46.8,46.5,44.9,43.1,95,85,70,30.13,29.95,8,2,13,0.00
2013-11-9,45.2,45.0,44.8,45.2,45.0,44.6,100,100,98,30.11,30.09,3,1,8,0.02
2013-11-10,49.1,45.9,43.8,46.8,44.9,43.7,100,96,88,30.15,30.08,8,1,10,0.00
2013-11-11,57.3,48.8,42.0,49.4,45.5,42.0,100,89,65,30.15,29.99,6,1,8,0.00
2013-11-12,49.5,49.5,49.5,46.1,46.1,46.1,88,88,88,30.33,30.04,8,2,18,0.00